createdAt,value
2022-08-24T00:01:45.390Z,1.88
2022-08-24T00:04:15.328Z,1.83
2022-08-24T00:06:43.779Z,2.01
2022-08-24T00:09:10.169Z,1.91
2022-08-24T00:11:36.552Z,1.81
2022-08-24T00:14:03.039Z,1.72
2022-08-24T00:16:29.506Z,1.88
2022-08-24T00:18:55.978Z,1.91
2022-08-24T00:21:22.494Z,2.01
2022-08-24T00:23:48.892Z,1.70
2022-08-24T00:26:15.284Z,1.65
2022-08-24T00:28:41.744Z,1.85
2022-08-24T00:31:08.773Z,1.82
2022-08-24T00:33:35.263Z,1.74
2022-08-24T00:36:01.711Z,1.90
2022-08-24T00:38:29.821Z,1.87
2022-08-24T00:40:57.653Z,1.77
2022-08-24T00:43:24.257Z,1.84
2022-08-24T00:45:50.730Z,1.92
2022-08-24T00:48:17.183Z,1.97
2022-08-24T00:50:43.601Z,1.79
2022-08-24T00:53:09.998Z,1.94
2022-08-24T00:55:36.393Z,1.81
2022-08-24T00:58:02.976Z,1.71
2022-08-24T01:00:29.510Z,1.88
2022-08-24T01:02:55.907Z,1.75
2022-08-24T01:05:22.342Z,1.72
2022-08-24T01:07:48.718Z,1.95
2022-08-24T01:10:15.113Z,2.02
2022-08-24T01:12:41.593Z,1.81
2022-08-24T01:15:18.644Z,2.06
2022-08-24T01:17:46.910Z,1.98
2022-08-24T01:20:13.308Z,1.85
2022-08-24T01:22:39.684Z,1.69
2022-08-24T01:25:06.128Z,1.74
2022-08-24T01:27:32.522Z,1.90
2022-08-24T01:29:58.901Z,1.74
2022-08-24T01:32:25.496Z,1.74
2022-08-24T01:34:51.908Z,1.82
2022-08-24T01:37:18.284Z,1.82
2022-08-24T01:39:44.767Z,1.70
2022-08-24T01:42:11.209Z,1.80
2022-08-24T01:44:37.720Z,1.74
2022-08-24T01:47:07.371Z,1.53
2022-08-24T01:49:35.438Z,1.67
2022-08-24T01:52:01.833Z,1.88
2022-08-24T01:54:28.326Z,1.77
2022-08-24T01:56:54.715Z,1.73
2022-08-24T01:59:21.493Z,1.60
2022-08-24T02:01:47.970Z,1.78
2022-08-24T02:04:17.865Z,1.87
2022-08-24T02:06:45.403Z,1.69
2022-08-24T02:09:11.874Z,1.62
2022-08-24T02:11:38.272Z,1.78
2022-08-24T02:14:04.650Z,1.65
2022-08-24T02:16:32.408Z,1.72
2022-08-24T02:18:58.796Z,1.83
2022-08-24T02:21:25.171Z,1.83
2022-08-24T02:23:51.696Z,1.67
2022-08-24T02:26:18.088Z,1.74
2022-08-24T02:28:44.471Z,1.51
2022-08-24T02:31:10.948Z,1.74
2022-08-24T02:33:37.388Z,1.72
2022-08-24T02:36:04.057Z,1.76
2022-08-24T02:38:48.313Z,1.65
2022-08-24T02:41:14.738Z,1.76
2022-08-24T02:43:41.129Z,1.64
2022-08-24T02:46:07.659Z,1.62
2022-08-24T02:48:40.319Z,1.79
2022-08-24T02:51:06.731Z,1.72
2022-08-24T02:53:33.177Z,1.69
2022-08-24T02:55:59.588Z,1.76
2022-08-24T02:58:25.976Z,1.79
2022-08-24T03:00:52.432Z,1.76
2022-08-24T03:03:18.827Z,1.69
2022-08-24T03:05:45.245Z,1.89
2022-08-24T03:08:11.762Z,1.75
2022-08-24T03:10:38.196Z,2.00
2022-08-24T03:13:04.854Z,1.72
2022-08-24T03:15:31.526Z,1.71
2022-08-24T03:17:57.954Z,1.67
2022-08-24T03:20:24.348Z,1.69
2022-08-24T03:22:50.870Z,1.77
2022-08-24T03:25:17.284Z,1.79
2022-08-24T03:27:43.680Z,1.68
2022-08-24T03:30:10.106Z,1.67
2022-08-24T03:32:38.060Z,1.81
2022-08-24T03:35:04.464Z,2.00
2022-08-24T03:37:30.921Z,1.83
2022-08-24T03:39:57.372Z,2.01
2022-08-24T03:42:23.788Z,1.70
2022-08-24T03:44:50.219Z,1.94
2022-08-24T03:47:16.618Z,1.89
2022-08-24T03:49:42.991Z,1.74
2022-08-24T03:52:09.438Z,2.05
2022-08-24T03:54:35.818Z,1.89
2022-08-24T03:57:02.249Z,1.92
2022-08-24T03:59:28.677Z,1.73
2022-08-24T04:01:55.100Z,1.75
2022-08-24T04:04:21.525Z,1.75
2022-08-24T04:06:48.083Z,1.93
2022-08-24T04:09:14.470Z,1.96
2022-08-24T04:11:41.610Z,1.74
2022-08-24T04:14:08.285Z,1.85
2022-08-24T04:16:38.584Z,1.83
2022-08-24T04:19:04.992Z,1.70
2022-08-24T04:21:31.418Z,1.85
2022-08-24T04:24:01.879Z,1.94
2022-08-24T04:26:45.050Z,1.84
2022-08-24T04:29:12.614Z,2.08
2022-08-24T04:31:39.046Z,2.06
2022-08-24T04:34:05.491Z,2.12
2022-08-24T04:36:31.940Z,1.98
2022-08-24T04:38:58.357Z,2.76
2022-08-24T04:41:26.815Z,2.60
2022-08-24T04:43:58.224Z,2.41
2022-08-24T04:46:24.673Z,2.13
2022-08-24T04:48:51.062Z,2.25
2022-08-24T04:51:17.514Z,2.19
2022-08-24T04:53:43.908Z,2.28
2022-08-24T04:56:10.303Z,2.29
2022-08-24T04:58:36.834Z,2.13
2022-08-24T05:01:03.306Z,2.18
2022-08-24T05:03:29.781Z,2.21
2022-08-24T05:05:56.211Z,2.31
2022-08-24T05:08:22.621Z,2.29
2022-08-24T05:10:49.199Z,2.56
2022-08-24T05:13:15.643Z,2.21
2022-08-24T05:15:42.073Z,2.46
2022-08-24T05:18:08.532Z,2.46
2022-08-24T05:20:35.079Z,2.47
2022-08-24T05:23:04.501Z,2.45
2022-08-24T05:25:31.184Z,2.46
2022-08-24T05:27:57.642Z,2.25
2022-08-24T05:30:24.094Z,2.14
2022-08-24T05:32:50.469Z,2.39
2022-08-24T05:35:16.973Z,2.67
2022-08-24T05:37:43.392Z,2.54
2022-08-24T05:40:09.859Z,2.50
2022-08-24T05:42:36.414Z,2.49
2022-08-24T05:45:02.844Z,2.53
2022-08-24T05:47:29.374Z,2.78
2022-08-24T05:49:56.637Z,2.50
2022-08-24T05:52:23.050Z,2.76
2022-08-24T05:54:49.430Z,2.70
2022-08-24T05:57:15.911Z,2.59
2022-08-24T05:59:43.474Z,2.67
2022-08-24T06:02:09.959Z,2.58
2022-08-24T06:04:36.570Z,2.71
2022-08-24T06:07:03.080Z,2.81
2022-08-24T06:09:29.525Z,2.63
2022-08-24T06:11:55.947Z,2.87
2022-08-24T06:14:26.814Z,2.92
2022-08-24T06:16:53.733Z,2.56
2022-08-24T06:19:20.268Z,2.90
2022-08-24T06:21:46.873Z,2.63
2022-08-24T06:24:13.586Z,2.72
2022-08-24T06:26:40.051Z,2.32
2022-08-24T06:29:06.570Z,2.34
2022-08-24T06:31:39.350Z,2.29
2022-08-24T06:34:06.563Z,2.43
2022-08-24T06:36:32.975Z,2.59
2022-08-24T06:38:59.364Z,2.67
2022-08-24T06:41:25.968Z,2.58
2022-08-24T06:43:52.512Z,2.52
2022-08-24T06:46:23.532Z,2.34
2022-08-24T06:48:51.666Z,2.25
2022-08-24T06:51:18.362Z,2.39
2022-08-24T06:53:45.014Z,2.49
2022-08-24T06:56:11.658Z,2.53
2022-08-24T06:58:38.059Z,2.67
2022-08-24T07:01:04.610Z,3.01
2022-08-24T07:03:31.122Z,3.35
2022-08-24T07:05:57.580Z,3.26
2022-08-24T07:08:24.089Z,3.06
2022-08-24T07:10:50.851Z,2.88
2022-08-24T07:13:17.223Z,2.88
2022-08-24T07:15:45.681Z,2.61
2022-08-24T07:18:12.262Z,2.68
2022-08-24T07:20:38.661Z,2.69
2022-08-24T07:23:05.362Z,2.68
2022-08-24T07:25:32.001Z,2.48
2022-08-24T07:27:58.719Z,2.25
2022-08-24T07:30:27.318Z,2.44
2022-08-24T07:32:54.351Z,2.54
2022-08-24T07:35:20.758Z,2.40
2022-08-24T07:37:47.137Z,2.56
2022-08-24T07:40:13.689Z,2.51
2022-08-24T07:42:40.137Z,2.66
2022-08-24T07:45:06.581Z,2.73
2022-08-24T07:47:45.374Z,2.67
2022-08-24T07:50:19.712Z,2.83
2022-08-24T07:52:46.254Z,2.46
2022-08-24T07:55:12.659Z,2.63
2022-08-24T07:57:39.059Z,2.56
2022-08-24T08:00:05.940Z,2.79
2022-08-24T08:02:35.036Z,2.74
2022-08-24T08:05:03.079Z,2.48
2022-08-24T08:07:30.783Z,2.57
2022-08-24T08:09:57.211Z,2.73
2022-08-24T08:12:23.649Z,2.88
2022-08-24T08:14:50.222Z,2.74
2022-08-24T08:17:16.675Z,2.68
2022-08-24T08:19:43.091Z,2.62
2022-08-24T08:22:09.610Z,2.78
2022-08-24T08:24:39.430Z,2.45
2022-08-24T08:27:05.954Z,2.61
2022-08-24T08:29:32.497Z,2.71
2022-08-24T08:31:58.966Z,2.51
2022-08-24T08:34:28.171Z,2.80
2022-08-24T08:36:54.598Z,2.65
2022-08-24T08:39:20.979Z,2.65
2022-08-24T08:41:47.388Z,2.80
2022-08-24T08:44:14.013Z,2.57
2022-08-24T08:46:41.039Z,3.02
2022-08-24T08:49:07.584Z,2.97
2022-08-24T08:51:35.926Z,2.96
2022-08-24T08:54:02.331Z,2.54
2022-08-24T08:56:28.743Z,2.68
2022-08-24T08:58:59.456Z,2.98
2022-08-24T09:01:26.382Z,2.63
2022-08-24T09:03:59.199Z,2.71
2022-08-24T09:06:25.644Z,2.66
2022-08-24T09:08:52.369Z,2.57
2022-08-24T09:11:18.830Z,2.66
2022-08-24T09:13:45.220Z,2.64
2022-08-24T09:16:11.854Z,2.66
2022-08-24T09:18:38.326Z,2.68
2022-08-24T09:21:04.728Z,2.52
2022-08-24T09:23:31.148Z,2.67
2022-08-24T09:25:57.811Z,2.57
2022-08-24T09:28:27.254Z,2.75
2022-08-24T09:30:55.658Z,2.70
2022-08-24T09:33:23.092Z,2.68
2022-08-24T09:35:49.544Z,2.73
2022-08-24T09:38:15.955Z,2.80
2022-08-24T09:40:42.446Z,3.02
2022-08-24T09:43:08.869Z,2.92
2022-08-24T09:45:35.316Z,2.98
2022-08-24T09:48:01.872Z,3.02
2022-08-24T09:50:28.306Z,3.36
2022-08-24T09:52:54.688Z,3.17
2022-08-24T09:55:21.130Z,2.84
2022-08-24T09:58:00.569Z,3.07
2022-08-24T10:00:27.244Z,2.96
2022-08-24T10:02:53.725Z,2.91
2022-08-24T10:05:20.282Z,2.98
2022-08-24T10:07:46.831Z,2.99
2022-08-24T10:10:13.286Z,3.04
2022-08-24T10:12:39.706Z,3.19
2022-08-24T10:15:06.160Z,3.32
2022-08-24T10:17:34.802Z,3.38
2022-08-24T10:20:01.237Z,3.37
2022-08-24T10:22:27.704Z,3.28
2022-08-24T10:24:54.185Z,3.33
2022-08-24T10:27:20.588Z,3.29
2022-08-24T10:29:47.097Z,3.44
2022-08-24T10:32:13.505Z,3.28
2022-08-24T10:34:39.960Z,3.25
2022-08-24T10:37:06.619Z,2.91
2022-08-24T10:39:33.564Z,3.33
2022-08-24T10:42:00.104Z,3.43
2022-08-24T10:44:27.235Z,3.28
2022-08-24T10:46:58.382Z,3.41
2022-08-24T10:49:25.181Z,3.38
2022-08-24T10:51:53.806Z,3.37
2022-08-24T10:54:20.651Z,3.34
2022-08-24T10:56:47.241Z,3.20
2022-08-24T10:59:13.722Z,3.33
2022-08-24T11:01:40.157Z,3.50
2022-08-24T11:04:06.585Z,3.66
2022-08-24T11:06:33.162Z,3.31
2022-08-24T11:08:59.584Z,3.32
2022-08-24T11:11:25.980Z,3.37
2022-08-24T11:13:52.463Z,3.32
2022-08-24T11:16:18.868Z,3.54
2022-08-24T11:18:45.349Z,3.45
2022-08-24T11:21:11.957Z,3.53
2022-08-24T11:23:38.349Z,3.14
2022-08-24T11:26:04.787Z,3.19
2022-08-24T11:28:31.280Z,3.17
2022-08-24T11:30:57.877Z,3.34
2022-08-24T11:33:24.460Z,3.20
2022-08-24T11:35:50.901Z,3.22
2022-08-24T11:38:17.295Z,3.31
2022-08-24T11:40:43.728Z,3.21
2022-08-24T11:43:10.287Z,3.24
2022-08-24T11:45:36.689Z,3.55
2022-08-24T11:48:03.302Z,3.33
2022-08-24T11:50:31.950Z,3.39
2022-08-24T11:53:00.890Z,3.38
2022-08-24T11:55:27.620Z,3.33
2022-08-24T11:58:03.490Z,3.06
2022-08-24T12:00:30.170Z,3.03
2022-08-24T12:02:56.671Z,3.11
2022-08-24T12:05:23.223Z,3.12
2022-08-24T12:07:51.057Z,3.16
2022-08-24T12:10:18.583Z,3.24
2022-08-24T12:12:45.063Z,3.01
2022-08-24T12:15:11.620Z,3.11
2022-08-24T12:17:38.067Z,3.27
2022-08-24T12:20:04.528Z,3.44
2022-08-24T12:22:30.922Z,3.09
2022-08-24T12:24:59.579Z,3.42
2022-08-24T12:27:26.012Z,3.06
2022-08-24T12:29:52.480Z,3.15
2022-08-24T12:32:18.906Z,3.03
2022-08-24T12:34:45.409Z,3.31
2022-08-24T12:37:16.316Z,3.25
2022-08-24T12:39:43.009Z,3.01
2022-08-24T12:42:09.573Z,3.25
2022-08-24T12:44:36.045Z,3.35
2022-08-24T12:47:02.987Z,3.04
2022-08-24T12:49:29.576Z,3.09
2022-08-24T12:51:57.550Z,3.19
2022-08-24T12:54:24.129Z,3.03
2022-08-24T12:56:51.597Z,3.01
2022-08-24T12:59:18.050Z,3.35
2022-08-24T13:01:47.288Z,2.80
2022-08-24T13:04:16.846Z,3.02
2022-08-24T13:06:43.316Z,3.33
2022-08-24T13:09:10.341Z,3.03
2022-08-24T13:11:37.084Z,3.14
2022-08-24T13:14:03.585Z,3.17
2022-08-24T13:16:30.096Z,2.98
2022-08-24T13:18:56.577Z,2.88
2022-08-24T13:21:23.653Z,3.07
2022-08-24T13:23:50.069Z,2.97
2022-08-24T13:26:16.540Z,3.32
2022-08-24T13:28:43.031Z,3.19
2022-08-24T13:31:09.566Z,3.23
2022-08-24T13:33:36.128Z,3.02
2022-08-24T13:36:02.644Z,3.06
2022-08-24T13:38:29.047Z,3.03
2022-08-24T13:40:55.507Z,3.12
2022-08-24T13:43:21.960Z,3.00
2022-08-24T13:45:48.474Z,3.06
2022-08-24T13:48:14.933Z,3.02
2022-08-24T13:50:41.367Z,3.06
2022-08-24T13:53:07.772Z,3.04
2022-08-24T13:55:34.266Z,3.15
2022-08-24T13:58:00.960Z,2.91
2022-08-24T14:00:27.444Z,3.30
2022-08-24T14:02:53.952Z,3.10
2022-08-24T14:05:21.786Z,3.17
2022-08-24T14:07:48.221Z,2.82
2022-08-24T14:10:14.687Z,2.88
2022-08-24T14:12:41.095Z,3.10
2022-08-24T14:15:07.525Z,3.28
2022-08-24T14:17:35.807Z,3.05
2022-08-24T14:20:02.484Z,2.99
2022-08-24T14:22:29.013Z,2.99
2022-08-24T14:24:55.449Z,2.99
2022-08-24T14:27:22.046Z,3.02
2022-08-24T14:29:48.507Z,3.21
2022-08-24T14:32:16.986Z,3.26
2022-08-24T14:34:43.592Z,2.93
2022-08-24T14:37:09.994Z,3.17
2022-08-24T14:39:37.832Z,3.37
2022-08-24T14:42:04.228Z,2.89
2022-08-24T14:44:30.638Z,2.96
2022-08-24T14:46:57.066Z,2.97
2022-08-24T14:49:23.456Z,3.10
2022-08-24T14:51:51.341Z,3.15
2022-08-24T14:54:17.964Z,2.96
2022-08-24T14:56:44.421Z,3.04
2022-08-24T14:59:10.835Z,3.11
2022-08-24T15:01:37.394Z,2.84
2022-08-24T15:04:03.896Z,3.17
2022-08-24T15:06:30.334Z,2.95
2022-08-24T15:08:56.816Z,3.05
2022-08-24T15:11:23.305Z,3.19
2022-08-24T15:13:49.732Z,2.98
2022-08-24T15:16:16.230Z,2.90
2022-08-24T15:18:42.748Z,2.80
2022-08-24T15:21:09.227Z,2.86
2022-08-24T15:23:35.975Z,2.84
2022-08-24T15:26:02.624Z,3.08
2022-08-24T15:28:29.149Z,3.26
2022-08-24T15:30:55.602Z,3.06
2022-08-24T15:33:22.050Z,3.01
2022-08-24T15:35:48.566Z,2.97
2022-08-24T15:38:15.061Z,2.76
2022-08-24T15:40:46.033Z,3.05
2022-08-24T15:43:12.650Z,3.06
2022-08-24T15:45:39.332Z,4.00
2022-08-24T15:48:06.945Z,3.70
2022-08-24T15:50:33.439Z,3.38
2022-08-24T15:52:59.992Z,3.11
2022-08-24T15:55:26.533Z,3.06
2022-08-24T15:57:53.011Z,3.48
2022-08-24T16:00:19.498Z,3.11
2022-08-24T16:02:45.953Z,3.13
2022-08-24T16:05:14.174Z,3.17
2022-08-24T16:07:41.017Z,3.39
2022-08-24T16:10:07.414Z,3.33
2022-08-24T16:12:33.817Z,3.22
2022-08-24T16:15:00.286Z,3.21
2022-08-24T16:17:26.668Z,2.99
2022-08-24T16:19:53.087Z,3.10
2022-08-24T16:22:19.777Z,3.05
2022-08-24T16:24:46.159Z,3.01
2022-08-24T16:27:12.574Z,3.09
2022-08-24T16:29:39.121Z,2.68
2022-08-24T16:32:05.629Z,3.06
2022-08-24T16:34:35.087Z,3.05
2022-08-24T16:37:01.593Z,3.18
2022-08-24T16:39:28.011Z,2.98
2022-08-24T16:41:54.450Z,3.08
2022-08-24T16:44:20.917Z,3.12
2022-08-24T16:46:52.639Z,3.03
2022-08-24T16:49:19.081Z,3.00
2022-08-24T16:51:45.775Z,3.22
2022-08-24T16:54:12.305Z,3.22
2022-08-24T16:56:38.722Z,3.44
2022-08-24T16:59:05.206Z,3.35
2022-08-24T17:01:31.747Z,3.46
2022-08-24T17:03:58.262Z,3.63
2022-08-24T17:06:24.756Z,3.63
2022-08-24T17:08:51.173Z,3.93
2022-08-24T17:11:17.625Z,5.09
2022-08-24T17:13:49.757Z,5.19
2022-08-24T17:16:16.930Z,6.01
2022-08-24T17:18:43.398Z,5.58
2022-08-24T17:21:09.852Z,4.53
2022-08-24T17:23:36.240Z,4.57
2022-08-24T17:26:02.959Z,4.27
2022-08-24T17:28:29.519Z,3.85
2022-08-24T17:30:55.921Z,3.79
2022-08-24T17:33:22.388Z,3.82
2022-08-24T17:35:48.861Z,3.47
2022-08-24T17:38:15.255Z,3.37
2022-08-24T17:40:41.683Z,3.04
2022-08-24T17:43:08.311Z,2.90
2022-08-24T17:45:34.861Z,2.99
2022-08-24T17:48:01.542Z,3.17
2022-08-24T17:50:28.034Z,3.26
2022-08-24T17:52:56.233Z,3.63
2022-08-24T17:55:25.590Z,3.23
2022-08-24T17:57:52.048Z,3.26
2022-08-24T18:00:18.523Z,3.34
2022-08-24T18:02:44.931Z,3.54
2022-08-24T18:05:11.536Z,3.49
2022-08-24T18:07:52.441Z,3.38
2022-08-24T18:10:19.856Z,3.43
2022-08-24T18:12:46.264Z,3.27
2022-08-24T18:15:12.647Z,3.14
2022-08-24T18:17:39.073Z,3.35
2022-08-24T18:20:05.460Z,2.83
2022-08-24T18:22:31.889Z,2.99
2022-08-24T18:24:58.348Z,2.96
2022-08-24T18:27:26.330Z,2.92
2022-08-24T18:29:57.254Z,2.89
2022-08-24T18:32:24.046Z,3.04
2022-08-24T18:34:56.533Z,3.13
2022-08-24T18:37:22.929Z,2.97
2022-08-24T18:39:49.393Z,3.02
2022-08-24T18:42:15.878Z,2.95
2022-08-24T18:44:42.292Z,3.00
2022-08-24T18:47:08.755Z,2.78
2022-08-24T18:49:35.194Z,2.79
2022-08-24T18:52:01.602Z,2.62
2022-08-24T18:54:28.092Z,2.64
2022-08-24T18:56:54.523Z,2.67
2022-08-24T18:59:20.967Z,2.75
2022-08-24T19:01:47.508Z,2.54
2022-08-24T19:04:14.330Z,2.48
2022-08-24T19:06:40.762Z,2.51
2022-08-24T19:09:07.190Z,2.47
2022-08-24T19:11:33.613Z,2.58
2022-08-24T19:14:00.662Z,2.64
2022-08-24T19:16:27.251Z,2.69
2022-08-24T19:18:53.947Z,2.59
2022-08-24T19:21:20.343Z,2.38
2022-08-24T19:23:46.803Z,2.42
2022-08-24T19:26:13.232Z,2.51
2022-08-24T19:28:39.626Z,2.19
2022-08-24T19:31:06.143Z,2.28
2022-08-24T19:33:32.587Z,2.35
2022-08-24T19:35:59.041Z,2.32
2022-08-24T19:38:26.378Z,2.32
2022-08-24T19:40:52.900Z,2.22
2022-08-24T19:43:19.710Z,1.92
2022-08-24T19:45:46.523Z,2.21
2022-08-24T19:48:12.905Z,2.26
2022-08-24T19:50:39.296Z,2.51
2022-08-24T19:53:05.940Z,2.25
2022-08-24T19:55:32.479Z,2.29
2022-08-24T19:57:58.854Z,2.31
2022-08-24T20:00:25.464Z,2.29
2022-08-24T20:02:51.945Z,2.36
2022-08-24T20:05:18.476Z,2.44
2022-08-24T20:07:44.938Z,2.21
2022-08-24T20:10:12.415Z,2.21
2022-08-24T20:12:39.690Z,2.29
2022-08-24T20:15:06.134Z,2.47
2022-08-24T20:17:32.616Z,2.31
2022-08-24T20:19:58.993Z,2.24
2022-08-24T20:22:25.455Z,2.12
2022-08-24T20:24:51.912Z,2.22
2022-08-24T20:27:18.341Z,2.27
2022-08-24T20:29:44.814Z,2.19
2022-08-24T20:32:11.232Z,2.30
2022-08-24T20:34:38.974Z,2.34
2022-08-24T20:37:05.490Z,2.18
2022-08-24T20:39:32.101Z,2.11
2022-08-24T20:41:58.493Z,2.32
2022-08-24T20:44:25.407Z,2.35
2022-08-24T20:46:51.836Z,2.09
2022-08-24T20:49:19.536Z,2.20
2022-08-24T20:51:46.065Z,2.40
2022-08-24T20:54:12.668Z,2.52
2022-08-24T20:56:39.153Z,2.31
2022-08-24T20:59:05.584Z,2.39
2022-08-24T21:01:31.979Z,2.40
2022-08-24T21:04:02.764Z,2.19
2022-08-24T21:06:30.808Z,2.56
2022-08-24T21:08:57.194Z,2.36
2022-08-24T21:11:23.629Z,2.11
2022-08-24T21:13:50.091Z,2.24
2022-08-24T21:16:16.652Z,2.44
2022-08-24T21:18:43.099Z,2.29
2022-08-24T21:21:09.635Z,2.36
2022-08-24T21:23:36.027Z,2.53
2022-08-24T21:26:02.468Z,2.26
2022-08-24T21:28:29.052Z,2.48
2022-08-24T21:30:55.456Z,2.47
2022-08-24T21:33:24.612Z,2.48
2022-08-24T21:35:51.336Z,2.25
2022-08-24T21:38:17.966Z,2.12
2022-08-24T21:40:45.089Z,2.23
2022-08-24T21:43:17.763Z,2.11
2022-08-24T21:45:44.853Z,2.24
2022-08-24T21:48:11.369Z,2.51
2022-08-24T21:50:37.917Z,2.37
2022-08-24T21:53:04.501Z,2.29
2022-08-24T21:55:31.088Z,2.20
2022-08-24T21:57:57.700Z,2.20
2022-08-24T22:00:24.202Z,2.29
2022-08-24T22:02:50.780Z,2.29
2022-08-24T22:05:17.401Z,2.21
2022-08-24T22:07:43.815Z,2.30
2022-08-24T22:10:10.225Z,2.28
2022-08-24T22:12:36.686Z,2.21
2022-08-24T22:15:03.075Z,2.18
2022-08-24T22:17:29.483Z,2.17
2022-08-24T22:19:55.956Z,2.12
2022-08-24T22:22:22.339Z,2.04
2022-08-24T22:24:48.788Z,2.23
2022-08-24T22:27:15.257Z,2.37
2022-08-24T22:29:41.719Z,2.15
2022-08-24T22:32:08.184Z,2.22
2022-08-24T22:34:37.785Z,2.13
2022-08-24T22:37:04.175Z,2.13
2022-08-24T22:39:30.565Z,2.27
2022-08-24T22:41:57.058Z,2.31
2022-08-24T22:44:23.603Z,2.06
2022-08-24T22:46:50.087Z,2.27
2022-08-24T22:49:16.558Z,2.27
2022-08-24T22:51:42.940Z,2.31
2022-08-24T22:54:09.350Z,2.30
2022-08-24T22:56:37.053Z,2.23
2022-08-24T22:59:03.446Z,1.99
2022-08-24T23:01:29.895Z,2.12
2022-08-24T23:03:56.496Z,2.07
2022-08-24T23:06:22.911Z,1.98
2022-08-24T23:08:49.280Z,2.02
2022-08-24T23:11:15.805Z,2.24
2022-08-24T23:13:42.201Z,1.98
2022-08-24T23:16:08.681Z,2.00
2022-08-24T23:18:35.153Z,2.13
2022-08-24T23:21:01.544Z,2.14
2022-08-24T23:23:27.920Z,1.95
2022-08-24T23:25:54.346Z,2.02
2022-08-24T23:28:20.726Z,2.09
2022-08-24T23:30:47.143Z,2.08
2022-08-24T23:33:13.586Z,2.19
2022-08-24T23:35:39.980Z,2.13
2022-08-24T23:38:06.376Z,1.98
2022-08-24T23:40:32.857Z,2.04
2022-08-24T23:42:59.257Z,1.95
2022-08-24T23:45:28.448Z,1.92
2022-08-24T23:47:57.359Z,2.15
2022-08-24T23:50:23.808Z,1.97
2022-08-24T23:52:50.195Z,1.97
2022-08-24T23:55:21.202Z,2.22
2022-08-24T23:57:48.605Z,2.14
